Time;durP1;ratioP1;P1;durP2;ratioP2;P2;SDS_P1;SDS_P2;PMS_P1;PMS_P2;Temp;Humidity;BMP_temperature;BMP_pressure;BME280_temperature;BME280_humidity;BME280_pressure;Samples;Min_cycle;Max_cycle;Signal;HPM_P1;HPM_P2
2022/10/20 00:01:18;;;;;;;15.00;4.75;;;16.50;99.90;;;;;;5056077;28;20041;-66
2022/10/20 00:03:45;;;;;;;10.68;4.07;;;16.50;99.90;;;;;;5056158;28;20510;-66
2022/10/20 00:06:13;;;;;;;15.20;4.95;;;16.50;99.90;;;;;;5056059;28;20883;-66
2022/10/20 00:08:40;;;;;;;13.90;4.72;;;16.50;99.90;;;;;;5055912;28;20120;-66
2022/10/20 00:11:07;;;;;;;10.10;4.28;;;16.50;99.90;;;;;;5055871;28;20381;-66
2022/10/20 00:13:33;;;;;;;11.82;4.82;;;16.50;99.90;;;;;;5055755;28;20041;-65
2022/10/20 00:15:59;;;;;;;14.77;4.32;;;16.50;99.90;;;;;;5055763;28;20049;-66
2022/10/20 00:18:26;;;;;;;19.83;4.82;;;16.40;99.90;;;;;;5055586;28;20041;-65
2022/10/20 00:20:52;;;;;;;15.70;5.25;;;16.40;99.90;;;;;;5055784;28;20045;-65
2022/10/20 00:23:17;;;;;;;11.55;4.32;;;16.40;99.90;;;;;;5055793;28;20033;-66
2022/10/20 00:25:43;;;;;;;12.93;4.13;;;16.40;99.90;;;;;;5055910;28;20558;-65
2022/10/20 00:28:09;;;;;;;17.13;4.88;;;16.50;99.90;;;;;;5055549;28;20076;-66
2022/10/20 00:30:35;;;;;;;14.30;4.47;;;16.50;99.90;;;;;;5055374;28;20439;-65
2022/10/20 00:33:02;;;;;;;15.00;4.82;;;16.40;99.90;;;;;;5055450;28;20033;-65
2022/10/20 00:35:29;;;;;;;11.60;5.10;;;16.40;99.90;;;;;;5055641;28;20041;-64
2022/10/20 00:37:55;;;;;;;9.68;4.28;;;16.40;99.90;;;;;;5055457;28;20156;-65
2022/10/20 00:40:21;;;;;;;15.45;4.25;;;16.40;99.90;;;;;;5055478;28;20556;-65
2022/10/20 00:42:48;;;;;;;11.38;4.53;;;16.40;99.90;;;;;;5055469;28;20036;-66
2022/10/20 00:45:17;;;;;;;10.63;4.00;;;16.30;99.90;;;;;;5055295;28;20049;-66
2022/10/20 00:47:48;;;;;;;13.32;4.30;;;16.20;99.90;;;;;;5055157;28;20067;-65
2022/10/20 00:50:22;;;;;;;11.00;4.75;;;16.30;99.90;;;;;;5054713;28;20045;-66
2022/10/20 00:52:49;;;;;;;13.88;4.07;;;16.30;99.90;;;;;;5055033;28;20072;-66
2022/10/20 00:55:21;;;;;;;10.13;5.00;;;16.30;99.90;;;;;;5055009;28;20048;-64
2022/10/20 00:57:50;;;;;;;9.20;3.80;;;16.40;99.90;;;;;;5055118;28;20044;-66
2022/10/20 01:00:16;;;;;;;16.58;4.80;;;16.30;99.90;;;;;;5054782;28;20045;-66
2022/10/20 01:02:42;;;;;;;20.27;5.13;;;16.30;99.90;;;;;;5054950;28;20044;-66
2022/10/20 01:05:08;;;;;;;15.02;4.60;;;16.30;99.90;;;;;;5054916;28;20182;-66
2022/10/20 01:07:34;;;;;;;8.32;4.38;;;16.30;99.90;;;;;;5054857;28;20064;-66
2022/10/20 01:10:01;;;;;;;14.25;4.07;;;16.30;99.90;;;;;;5054572;28;20415;-66
2022/10/20 01:12:48;;;;;;;7.07;4.03;;;16.10;99.90;;;;;;5054701;28;20120;-66
2022/10/20 01:15:33;;;;;;;21.45;4.95;;;16.20;99.90;;;;;;5054620;28;20485;-65
2022/10/20 01:18:09;;;;;;;12.38;4.72;;;16.20;99.90;;;;;;5054630;28;20048;-66
2022/10/20 01:21:08;;;;;;;10.48;4.78;;;16.20;99.90;;;;;;5054648;28;20049;-66
2022/10/20 01:23:52;;;;;;;12.73;4.25;;;16.20;99.90;;;;;;5054670;28;20052;-66
2022/10/20 01:26:30;;;;;;;11.65;4.88;;;16.30;99.90;;;;;;5054700;28;20374;-66
2022/10/20 01:29:06;;;;;;;14.15;4.90;;;16.40;99.90;;;;;;5054233;28;20036;-66
2022/10/20 01:31:50;;;;;;;15.35;4.38;;;16.40;99.90;;;;;;5054086;28;20048;-64
2022/10/20 01:34:24;;;;;;;10.77;4.55;;;16.20;99.90;;;;;;5054272;28;20550;-67
2022/10/20 01:37:02;;;;;;;9.90;4.13;;;16.20;99.90;;;;;;5054129;28;20036;-66
2022/10/20 01:39:36;;;;;;;15.65;4.63;;;16.20;99.90;;;;;;5054261;28;20059;-66
2022/10/20 01:42:10;;;;;;;14.68;4.93;;;16.20;99.90;;;;;;5054151;28;20477;-66
2022/10/20 01:44:37;;;;;;;10.85;4.15;;;16.20;99.90;;;;;;5054245;28;20044;-66
2022/10/20 01:47:05;;;;;;;13.70;4.75;;;16.30;99.90;;;;;;5054079;28;20492;-65
2022/10/20 01:49:31;;;;;;;9.55;4.50;;;16.30;99.90;;;;;;5054040;28;20395;-67
2022/10/20 01:51:57;;;;;;;9.45;4.40;;;16.20;99.90;;;;;;5054156;28;20044;-67
2022/10/20 01:54:26;;;;;;;11.93;5.20;;;16.30;99.90;;;;;;5053951;28;20433;-64
2022/10/20 01:57:13;;;;;;;12.00;4.50;;;16.30;99.90;;;;;;5062532;28;20059;-66
2022/10/20 02:00:02;;;;;;;12.45;4.25;;;16.10;99.90;;;;;;5073966;28;20048;-67
2022/10/20 02:02:49;;;;;;;16.30;4.25;;;16.00;99.90;;;;;;5073405;28;20395;-67
2022/10/20 02:05:52;;;;;;;10.77;3.92;;;16.00;99.90;;;;;;5074078;28;20040;-67
2022/10/20 02:08:43;;;;;;;9.05;3.63;;;15.90;99.90;;;;;;5072836;28;20488;-64
2022/10/20 02:11:25;;;;;;;14.95;4.72;;;15.70;99.90;;;;;;5073672;28;20442;-67
2022/10/20 02:13:53;;;;;;;6.30;4.22;;;15.80;99.90;;;;;;5073780;28;20041;-67
2022/10/20 02:16:26;;;;;;;14.07;4.90;;;15.80;99.90;;;;;;5073837;28;20048;-67
2022/10/20 02:18:52;;;;;;;11.82;4.32;;;15.70;99.90;;;;;;5073762;28;20384;-67
2022/10/20 02:21:18;;;;;;;14.73;4.65;;;15.60;99.90;;;;;;5073706;28;20508;-67
2022/10/20 02:23:47;;;;;;;12.05;4.00;;;15.60;99.90;;;;;;5073786;28;20048;-66
2022/10/20 02:26:16;;;;;;;11.80;5.20;;;15.40;99.90;;;;;;5073761;28;20048;-65
2022/10/20 02:28:46;;;;;;;13.60;4.35;;;15.40;99.90;;;;;;5073616;28;20050;-67
2022/10/20 02:31:12;;;;;;;17.48;4.85;;;15.90;99.90;;;;;;5073709;28;20048;-66
2022/10/20 02:33:41;;;;;;;11.63;4.18;;;16.10;99.90;;;;;;5073811;28;20130;-66
2022/10/20 02:36:14;;;;;;;15.75;4.20;;;15.90;99.90;;;;;;5073484;28;20491;-66
2022/10/20 02:38:40;;;;;;;12.85;5.15;;;16.10;99.90;;;;;;5073655;28;20377;-64
2022/10/20 02:41:06;;;;;;;12.88;4.63;;;16.10;99.90;;;;;;5073747;28;20071;-65
2022/10/20 02:43:31;;;;;;;12.95;4.68;;;16.10;99.90;;;;;;5073667;28;20041;-67
2022/10/20 02:45:57;;;;;;;13.98;4.78;;;16.20;99.90;;;;;;5073787;28;20101;-64
2022/10/20 02:48:23;;;;;;;15.77;5.22;;;16.30;99.90;;;;;;5073650;28;20395;-67
2022/10/20 02:50:49;;;;;;;9.77;5.20;;;16.00;99.90;;;;;;5073501;28;20106;-67
2022/10/20 02:53:14;;;;;;;16.35;5.45;;;15.90;99.90;;;;;;5073579;28;20135;-67
2022/10/20 02:55:41;;;;;;;9.55;4.40;;;15.80;99.90;;;;;;5073546;28;20071;-67
2022/10/20 02:58:07;;;;;;;11.95;5.20;;;15.60;99.90;;;;;;5073496;28;20036;-66
2022/10/20 03:00:33;;;;;;;9.98;3.95;;;15.70;99.90;;;;;;5073489;28;20051;-67
2022/10/20 03:02:59;;;;;;;10.55;4.70;;;15.70;99.90;;;;;;5073256;28;20037;-65
2022/10/20 03:05:25;;;;;;;16.20;4.88;;;15.90;99.90;;;;;;5073209;28;20119;-66
2022/10/20 03:07:52;;;;;;;12.65;5.50;;;16.00;99.90;;;;;;5073139;28;20036;-67
2022/10/20 03:10:18;;;;;;;10.68;4.55;;;15.80;99.90;;;;;;5073170;28;20068;-67
2022/10/20 03:12:44;;;;;;;11.65;4.70;;;15.80;99.90;;;;;;5074440;28;20044;-65
2022/10/20 03:15:10;;;;;;;15.57;4.53;;;16.00;99.90;;;;;;5076855;28;20036;-67
2022/10/20 03:17:36;;;;;;;9.70;4.63;;;16.00;99.90;;;;;;5076762;28;20044;-65
2022/10/20 03:20:02;;;;;;;9.85;4.68;;;15.80;99.90;;;;;;5076970;28;20040;-66
2022/10/20 03:22:28;;;;;;;12.93;4.43;;;15.70;99.90;;;;;;5077178;28;20063;-66
2022/10/20 03:24:54;;;;;;;14.07;5.20;;;15.70;99.90;;;;;;5076820;28;20481;-67
2022/10/20 03:27:20;;;;;;;16.05;4.95;;;15.40;99.90;;;;;;5077056;28;20424;-67
2022/10/20 03:29:45;;;;;;;11.95;4.75;;;15.20;99.90;;;;;;5076577;28;20047;-67
2022/10/20 03:32:11;;;;;;;13.88;5.63;;;15.30;99.90;;;;;;5076558;28;20482;-66
2022/10/20 03:34:37;;;;;;;9.48;4.13;;;;;;;;;;5076527;28;20488;-67
2022/10/20 03:37:03;;;;;;;14.88;4.78;;;;;;;;;;5073441;28;20131;-65
2022/10/20 03:39:29;;;;;;;11.63;5.25;;;;;;;;;;5059315;28;20488;-67
2022/10/20 03:41:56;;;;;;;10.10;4.15;;;15.50;99.90;;;;;;5055713;28;20037;-65
2022/10/20 03:44:23;;;;;;;10.75;4.18;;;15.60;99.90;;;;;;5056552;28;20079;-67
2022/10/20 03:46:49;;;;;;;14.88;5.07;;;15.80;99.90;;;;;;5056322;28;20037;-66
2022/10/20 03:49:15;;;;;;;11.48;4.75;;;16.00;99.90;;;;;;5056362;28;20037;-67
2022/10/20 03:51:40;;;;;;;8.15;3.85;;;16.30;99.90;;;;;;5056322;28;20132;-65
2022/10/20 03:54:06;;;;;;;17.10;4.45;;;16.10;99.90;;;;;;5056316;28;20564;-64
2022/10/20 03:56:32;;;;;;;8.43;3.58;;;16.30;99.90;;;;;;5056242;28;20065;-66
2022/10/20 03:58:58;;;;;;;7.53;3.80;;;16.20;99.90;;;;;;5056020;28;20373;-67
2022/10/20 04:01:28;;;;;;;14.88;4.88;;;16.10;99.90;;;;;;5053073;28;20061;-67
2022/10/20 04:03:54;;;;;;;;;;;16.10;99.90;;;;;;5054714;28;20033;-67
2022/10/20 04:06:20;;;;;;;7.93;3.45;;;16.30;99.90;;;;;;5054529;28;19916;-66
2022/10/20 04:08:46;;;;;;;13.55;4.05;;;16.30;99.90;;;;;;5055920;28;20037;-67
2022/10/20 04:11:11;;;;;;;8.60;4.20;;;16.50;99.90;;;;;;5055825;28;20045;-65
2022/10/20 04:13:37;;;;;;;11.07;3.58;;;16.40;99.90;;;;;;5055969;28;20041;-66
2022/10/20 04:16:03;;;;;;;8.45;3.70;;;16.60;99.90;;;;;;5055638;28;20498;-64
2022/10/20 04:18:30;;;;;;;6.97;3.83;;;16.50;99.90;;;;;;5055854;28;20040;-67
2022/10/20 04:20:56;;;;;;;15.85;3.75;;;16.50;99.90;;;;;;5055696;28;20469;-67
2022/10/20 04:23:22;;;;;;;6.63;3.47;;;16.60;99.90;;;;;;5055709;28;20086;-65
2022/10/20 04:25:48;;;;;;;9.10;3.63;;;16.60;99.90;;;;;;5054943;28;20135;-67
2022/10/20 04:28:15;;;;;;;7.55;2.72;;;16.60;99.90;;;;;;5055623;28;20408;-67
2022/10/20 04:30:42;;;;;;;6.18;2.80;;;16.60;99.90;;;;;;5055390;28;20136;-67
2022/10/20 04:33:07;;;;;;;7.68;2.90;;;16.60;99.90;;;;;;5055397;28;20393;-66
2022/10/20 04:35:33;;;;;;;7.80;2.83;;;16.60;99.90;;;;;;5055379;28;20051;-65
2022/10/20 04:37:59;;;;;;;4.18;2.33;;;16.70;99.90;;;;;;5055323;28;20063;-67
2022/10/20 04:40:25;;;;;;;9.13;2.72;;;16.60;99.90;;;;;;5055349;28;20041;-66
2022/10/20 04:42:51;;;;;;;4.38;2.80;;;16.70;99.90;;;;;;5055339;28;20562;-67
2022/10/20 04:45:17;;;;;;;5.75;2.65;;;16.70;99.90;;;;;;5055123;28;20045;-67
2022/10/20 04:47:43;;;;;;;6.85;3.15;;;16.80;99.90;;;;;;5055259;28;20098;-66
2022/10/20 04:50:09;;;;;;;3.80;2.08;;;17.00;99.90;;;;;;5055316;28;20060;-66
2022/10/20 04:52:35;;;;;;;8.73;2.33;;;17.10;99.90;;;;;;5055122;28;20044;-66
2022/10/20 04:55:00;;;;;;;8.57;2.55;;;17.20;99.90;;;;;;5054995;28;20037;-65
2022/10/20 04:57:26;;;;;;;7.80;2.85;;;17.20;99.90;;;;;;5054992;28;20041;-66
2022/10/20 04:59:52;;;;;;;5.53;2.38;;;17.10;99.90;;;;;;5054837;28;20464;-64
2022/10/20 05:02:18;;;;;;;8.88;2.55;;;17.30;99.90;;;;;;5055078;28;20041;-67
2022/10/20 05:04:45;;;;;;;10.30;2.50;;;17.30;99.90;;;;;;5054974;28;20064;-65
2022/10/20 05:07:10;;;;;;;8.30;2.10;;;17.00;99.90;;;;;;5054779;28;20128;-66
2022/10/20 05:09:36;;;;;;;9.68;3.17;;;16.80;99.90;;;;;;5054555;28;20119;-66
2022/10/20 05:12:02;;;;;;;5.20;2.67;;;17.00;99.90;;;;;;5054867;28;20076;-65
2022/10/20 05:14:28;;;;;;;5.28;2.47;;;17.00;99.90;;;;;;5054690;28;20131;-65
2022/10/20 05:16:54;;;;;;;4.75;2.40;;;16.70;99.90;;;;;;5054774;28;20127;-67
2022/10/20 05:19:20;;;;;;;6.32;2.38;;;16.70;99.90;;;;;;5054765;28;20070;-67
2022/10/20 05:21:45;;;;;;;5.63;2.30;;;16.80;99.90;;;;;;5054677;28;20033;-66
2022/10/20 05:24:13;;;;;;;7.40;2.28;;;17.00;99.90;;;;;;5054288;28;20036;-66
2022/10/20 05:26:39;;;;;;;8.98;2.28;;;16.80;99.90;;;;;;5054345;28;20041;-65
2022/10/20 05:29:07;;;;;;;6.68;2.70;;;16.80;99.90;;;;;;5054293;28;20140;-66
2022/10/20 05:31:41;;;;;;;3.95;2.40;;;16.80;99.90;;;;;;5053765;28;20051;-64
2022/10/20 05:34:10;;;;;;;4.70;2.05;;;16.90;99.90;;;;;;5055725;28;20752;-67
2022/10/20 05:36:36;;;;;;;5.22;2.45;;;16.90;99.90;;;;;;5072447;28;20044;-70
2022/10/20 05:39:02;;;;;;;7.07;2.47;;;17.00;99.90;;;;;;5073351;28;20055;-68
2022/10/20 05:41:30;;;;;;;8.45;2.15;;;16.90;99.90;;;;;;5073616;28;20071;-67
2022/10/20 05:43:59;;;;;;;6.88;2.40;;;17.10;99.90;;;;;;5073946;28;20085;-67
2022/10/20 05:46:31;;;;;;;8.20;2.53;;;16.90;99.90;;;;;;5072392;28;20041;-64
2022/10/20 05:48:58;;;;;;;4.88;2.25;;;17.00;99.90;;;;;;5072132;28;20523;-64
2022/10/20 05:51:27;;;;;;;5.75;2.30;;;16.70;99.90;;;;;;5072100;28;20090;-67
2022/10/20 05:53:58;;;;;;;3.50;2.05;;;17.00;99.90;;;;;;5072034;28;20042;-69
2022/10/20 05:56:26;;;;;;;5.32;2.33;;;16.70;99.90;;;;;;5070782;28;20373;-66
2022/10/20 05:58:52;;;;;;;9.88;3.30;;;16.80;99.90;;;;;;5071983;28;20526;-67
2022/10/20 06:01:23;;;;;;;11.10;3.47;;;16.80;99.90;;;;;;5073359;28;20052;-65
2022/10/20 06:03:51;;;;;;;5.35;2.95;;;16.50;99.90;;;;;;5074069;28;20037;-66
2022/10/20 06:06:19;;;;;;;8.85;2.60;;;16.50;99.90;;;;;;5073915;28;20145;-67
2022/10/20 06:08:45;;;;;;;5.50;3.28;;;16.40;99.90;;;;;;5073920;28;20507;-66
2022/10/20 06:11:12;;;;;;;9.00;4.00;;;16.20;99.90;;;;;;5074003;28;20060;-66
2022/10/20 06:13:37;;;;;;;5.90;2.95;;;16.20;99.90;;;;;;5073950;28;20067;-67
2022/10/20 06:16:08;;;;;;;5.25;2.85;;;16.20;99.90;;;;;;5073302;28;20040;-66
2022/10/20 06:18:37;;;;;;;8.38;3.22;;;16.30;99.90;;;;;;5073669;28;20028;-67
2022/10/20 06:21:06;;;;;;;6.40;2.83;;;16.30;99.90;;;;;;5073221;28;20068;-67
2022/10/20 06:23:33;;;;;;;6.00;2.92;;;16.40;99.90;;;;;;5071838;28;20094;-67
2022/10/20 06:26:08;;;;;;;7.47;3.25;;;16.60;99.90;;;;;;5071180;28;20072;-66
2022/10/20 06:28:35;;;;;;;8.48;3.50;;;16.50;99.90;;;;;;5071068;28;20565;-66
2022/10/20 06:31:09;;;;;;;7.03;2.80;;;16.50;99.90;;;;;;5070142;28;20052;-67
2022/10/20 06:33:35;;;;;;;6.10;2.72;;;16.50;99.90;;;;;;5069764;28;20028;-67
2022/10/20 06:36:01;;;;;;;8.10;3.47;;;16.30;99.90;;;;;;5071756;28;20127;-67
2022/10/20 06:38:27;;;;;;;6.85;3.33;;;16.50;99.90;;;;;;5072334;28;20411;-66
2022/10/20 06:40:53;;;;;;;10.20;3.33;;;16.30;99.90;;;;;;5070816;28;20123;-66
2022/10/20 06:43:19;;;;;;;12.68;4.03;;;15.90;99.90;;;;;;5072330;28;20123;-65
2022/10/20 06:45:56;;;;;;;9.07;3.67;;;15.80;99.90;;;;;;5071434;28;20120;-66
2022/10/20 06:48:22;;;;;;;16.58;3.88;;;15.80;99.90;;;;;;5073852;28;20040;-67
2022/10/20 06:50:48;;;;;;;11.52;4.70;;;15.80;99.90;;;;;;5075187;28;20084;-66
2022/10/20 06:53:14;;;;;;;9.55;4.32;;;15.70;99.90;;;;;;5075119;28;20181;-66
2022/10/20 06:55:40;;;;;;;5.57;3.17;;;15.80;99.90;;;;;;5074997;28;20071;-67
2022/10/20 06:58:06;;;;;;;4.97;3.40;;;15.90;99.90;;;;;;5076563;28;20044;-67
2022/10/20 07:00:31;;;;;;;5.43;2.75;;;16.00;99.90;;;;;;5076898;28;20043;-67
2022/10/20 07:02:57;;;;;;;7.13;3.35;;;16.20;99.90;;;;;;5076980;28;20044;-67
2022/10/20 07:05:23;;;;;;;10.65;2.50;;;16.30;99.90;;;;;;5075910;28;20097;-66
2022/10/20 07:07:52;;;;;;;6.43;2.70;;;16.30;99.90;;;;;;5074506;28;20082;-67
2022/10/20 07:10:17;;;;;;;4.72;2.10;;;16.40;99.90;;;;;;5074429;28;20043;-67
2022/10/20 07:12:43;;;;;;;4.22;1.65;;;16.50;99.90;;;;;;5074873;28;20123;-67
2022/10/20 07:15:09;;;;;;;6.95;2.42;;;16.60;99.90;;;;;;5076276;28;20094;-66
2022/10/20 07:17:35;;;;;;;4.22;2.03;;;16.50;99.90;;;;;;5075014;28;20029;-65
2022/10/20 07:20:01;;;;;;;5.13;2.20;;;16.50;99.90;;;;;;5074501;28;20044;-68
2022/10/20 07:22:26;;;;;;;11.20;2.80;;;16.50;99.90;;;;;;5074732;28;20515;-65
2022/10/20 07:24:52;;;;;;;6.22;3.70;;;16.50;99.90;;;;;;5075525;28;20582;-68
2022/10/20 07:27:18;;;;;;;11.02;4.03;;;16.50;99.90;;;;;;5076497;28;20058;-68
2022/10/20 07:29:44;;;;;;;8.30;3.08;;;16.40;99.90;;;;;;5074268;28;20052;-67
2022/10/20 07:32:10;;;;;;;7.72;4.35;;;16.50;99.90;;;;;;5073232;28;20500;-67
2022/10/20 07:34:35;;;;;;;14.32;4.28;;;16.40;99.90;;;;;;5076408;28;20041;-65
2022/10/20 07:37:01;;;;;;;6.82;4.28;;;16.50;99.90;;;;;;5075348;28;20113;-68
2022/10/20 07:39:27;;;;;;;13.15;5.07;;;16.40;99.90;;;;;;5074231;28;20072;-67
2022/10/20 07:41:53;;;;;;;12.50;5.63;;;16.50;99.90;;;;;;5073222;28;20044;-66
2022/10/20 07:44:19;;;;;;;11.80;5.97;;;16.60;99.90;;;;;;5068105;28;20499;-67
2022/10/20 07:46:45;;;;;;;14.88;6.93;;;16.50;99.90;;;;;;5054439;28;20110;-66
2022/10/20 07:49:10;;;;;;;17.08;7.25;;;16.50;99.90;;;;;;5055958;28;20029;-67
2022/10/20 07:51:36;;;;;;;19.83;6.45;;;16.50;99.90;;;;;;5055093;28;20059;-68
2022/10/20 07:54:07;;;;;;;22.50;7.30;;;16.50;99.90;;;;;;5053397;28;20033;-67
2022/10/20 07:56:39;;;;;;;14.30;7.00;;;16.50;99.90;;;;;;5055424;28;20052;-66
2022/10/20 07:59:06;;;;;;;24.90;8.50;;;16.60;99.90;;;;;;5054397;28;20094;-67
2022/10/20 08:01:32;;;;;;;18.65;8.60;;;16.60;99.90;;;;;;5053942;28;20068;-67
2022/10/20 08:03:58;;;;;;;18.95;8.50;;;16.60;99.90;;;;;;5053610;28;20061;-67
2022/10/20 08:06:24;;;;;;;19.33;8.70;;;16.60;99.90;;;;;;5053839;28;20095;-67
2022/10/20 08:08:50;;;;;;;16.10;7.78;;;16.60;99.90;;;;;;5053264;28;20042;-67
2022/10/20 08:11:16;;;;;;;19.83;8.45;;;16.60;99.90;;;;;;5053517;28;20149;-65
2022/10/20 08:13:42;;;;;;;29.15;8.73;;;16.60;99.90;;;;;;5054035;28;20282;-67
2022/10/20 08:16:10;;;;;;;17.23;8.02;;;16.70;99.90;;;;;;5067828;28;20086;-67
2022/10/20 08:18:36;;;;;;;22.80;8.95;;;16.80;99.90;;;;;;5074730;28;20062;-67
2022/10/20 08:21:14;;;;;;;23.33;9.43;;;16.80;99.90;;;;;;5073303;28;20504;-67
2022/10/20 08:23:42;;;;;;;23.75;9.40;;;16.90;99.90;;;;;;5073115;28;20090;-65
2022/10/20 08:26:09;;;;;;;17.63;8.68;;;16.90;99.90;;;;;;5073077;28;20052;-68
2022/10/20 08:28:36;;;;;;;20.50;9.05;;;17.10;99.90;;;;;;5074912;28;20047;-69
2022/10/20 08:31:06;;;;;;;18.85;8.57;;;16.90;99.90;;;;;;5073088;28;20131;-68
2022/10/20 08:33:31;;;;;;;25.23;8.18;;;17.00;99.90;;;;;;5073348;28;20032;-67
2022/10/20 08:36:03;;;;;;;14.75;7.53;;;17.10;99.90;;;;;;5071830;28;20071;-67
2022/10/20 08:38:29;;;;;;;24.17;8.57;;;17.20;99.90;;;;;;5072817;28;20125;-67
2022/10/20 08:40:55;;;;;;;21.58;8.68;;;17.20;99.90;;;;;;5072867;28;20503;-68
2022/10/20 08:43:21;;;;;;;16.88;7.78;;;17.30;99.90;;;;;;5072875;28;20040;-67
2022/10/20 08:45:46;;;;;;;20.60;9.23;;;17.20;99.90;;;;;;5072884;28;20085;-67
2022/10/20 08:48:19;;;;;;;14.55;7.63;;;17.30;99.90;;;;;;5072963;28;20109;-66
2022/10/20 08:50:47;;;;;;;13.27;7.47;;;17.40;99.90;;;;;;5072887;28;20048;-67
2022/10/20 08:53:13;;;;;;;12.38;7.38;;;17.40;99.90;;;;;;5074488;28;20071;-67
2022/10/20 08:55:42;;;;;;;17.95;7.10;;;17.40;99.90;;;;;;5074459;28;20520;-69
2022/10/20 08:58:18;;;;;;;17.88;8.50;;;17.60;99.90;;;;;;5072779;28;20098;-66
2022/10/20 09:00:44;;;;;;;19.13;8.35;;;17.50;99.90;;;;;;5072816;28;20047;-68
2022/10/20 09:03:20;;;;;;;13.18;7.38;;;17.50;99.90;;;;;;5072821;28;20119;-68
2022/10/20 09:05:53;;;;;;;16.80;7.65;;;17.50;99.90;;;;;;5071156;28;20044;-67
2022/10/20 09:08:22;;;;;;;18.88;7.53;;;17.50;99.90;;;;;;5067555;28;20142;-66
2022/10/20 09:10:51;;;;;;;17.13;7.97;;;17.60;99.90;;;;;;5071009;28;20048;-66
2022/10/20 09:13:20;;;;;;;21.98;8.02;;;17.70;99.90;;;;;;5072119;28;20040;-67
2022/10/20 09:15:48;;;;;;;16.30;7.60;;;17.70;99.90;;;;;;5072059;28;20048;-67
2022/10/20 09:18:15;;;;;;;16.02;7.55;;;17.70;99.90;;;;;;5069508;28;20510;-67
2022/10/20 09:20:46;;;;;;;17.73;7.25;;;17.70;99.90;;;;;;5070597;28;20036;-67
2022/10/20 09:23:18;;;;;;;17.92;7.70;;;17.60;99.90;;;;;;5071401;28;20073;-67
2022/10/20 09:25:45;;;;;;;15.48;6.97;;;17.70;99.90;;;;;;5071973;28;20032;-68
2022/10/20 09:28:24;;;;;;;16.05;7.53;;;17.70;99.90;;;;;;5071204;28;20442;-67
2022/10/20 09:30:50;;;;;;;17.02;8.20;;;17.70;99.90;;;;;;5064760;28;20044;-69
2022/10/20 09:33:30;;;;;;;13.32;6.85;;;17.70;99.90;;;;;;5064857;28;20538;-69
2022/10/20 09:36:17;;;;;;;15.17;7.40;;;17.70;99.90;;;;;;5072316;28;20047;-67
2022/10/20 09:38:47;;;;;;;15.95;6.35;;;17.70;99.90;;;;;;5069933;28;20290;-68
2022/10/20 09:41:19;;;;;;;14.67;7.27;;;17.80;99.90;;;;;;5070235;28;20452;-68
2022/10/20 09:44:12;;;;;;;19.23;7.55;;;17.80;99.90;;;;;;5071930;28;20033;-67
2022/10/20 09:46:47;;;;;;;15.75;7.40;;;17.80;99.90;;;;;;5072573;28;20043;-67
2022/10/20 09:49:40;;;;;;;16.50;6.03;;;17.80;99.90;;;;;;5071998;28;20115;-67
2022/10/20 09:52:22;;;;;;;17.17;6.50;;;17.90;99.90;;;;;;5071963;28;20094;-68
2022/10/20 09:54:50;;;;;;;20.08;6.88;;;17.90;99.90;;;;;;5072621;28;20098;-68
2022/10/20 09:57:21;;;;;;;20.83;6.88;;;17.90;99.90;;;;;;5072055;28;20028;-68
2022/10/20 09:59:52;;;;;;;14.65;6.57;;;17.80;99.90;;;;;;5071765;28;20043;-68
2022/10/20 10:02:21;;;;;;;18.25;6.47;;;17.90;99.90;;;;;;5072149;28;20044;-68
2022/10/20 10:04:49;;;;;;;17.13;5.65;;;18.00;99.90;;;;;;5071978;28;20047;-68
2022/10/20 10:07:21;;;;;;;15.77;5.70;;;17.90;99.90;;;;;;5071956;28;20063;-68
2022/10/20 10:09:57;;;;;;;17.25;6.15;;;17.90;99.90;;;;;;5072028;28;20086;-69
2022/10/20 10:12:24;;;;;;;10.75;5.15;;;18.30;99.90;;;;;;5071751;28;20052;-69
2022/10/20 10:14:55;;;;;;;15.73;5.05;;;;;;;;;;5073738;28;20067;-69
2022/10/20 10:17:36;;;;;;;9.75;5.07;;;18.10;99.90;;;;;;5072937;28;20048;-68
2022/10/20 10:20:07;;;;;;;16.27;6.35;;;18.20;99.90;;;;;;5071498;28;20259;-68
2022/10/20 10:22:34;;;;;;;16.95;5.18;;;18.20;99.90;;;;;;5072779;28;20503;-68
2022/10/20 10:25:01;;;;;;;11.82;5.18;;;18.20;99.90;;;;;;5074993;28;20047;-69
2022/10/20 10:27:29;;;;;;;14.18;5.18;;;18.30;99.90;;;;;;5075827;28;20515;-68
2022/10/20 10:30:22;;;;;;;9.05;4.45;;;18.30;99.90;;;;;;5075622;28;20037;-68
2022/10/20 10:32:48;;;;;;;12.23;5.80;;;18.30;99.90;;;;;;5068886;28;20048;-68
2022/10/20 10:35:20;;;;;;;14.05;5.47;;;18.30;99.90;;;;;;5057407;28;20424;-68
2022/10/20 10:37:47;;;;;;;11.27;4.78;;;18.30;99.90;;;;;;5055330;28;20044;-68
2022/10/20 10:40:19;;;;;;;10.98;4.95;;;18.40;99.90;;;;;;5056300;28;20068;-68
2022/10/20 10:43:02;;;;;;;14.20;5.15;;;18.40;99.90;;;;;;5056320;28;20565;-68
2022/10/20 10:45:46;;;;;;;8.38;4.28;;;18.40;99.90;;;;;;5055565;28;20098;-68
2022/10/20 10:48:23;;;;;;;9.80;4.65;;;18.50;99.90;;;;;;5056833;28;20067;-68
2022/10/20 10:50:56;;;;;;;11.13;4.75;;;18.50;99.90;;;;;;5055110;28;20424;-68
2022/10/20 10:53:56;;;;;;;10.05;4.65;;;18.60;99.90;;;;;;5056295;28;20548;-68
2022/10/20 10:56:44;;;;;;;10.68;4.53;;;18.70;99.90;;;;;;5055097;28;20037;-68
2022/10/20 10:59:19;;;;;;;13.57;4.70;;;18.70;99.90;;;;;;5054982;28;20111;-68
2022/10/20 11:01:56;;;;;;;12.80;4.45;;;18.70;99.90;;;;;;5055240;28;20044;-68
2022/10/20 11:04:47;;;;;;;9.75;4.10;;;18.70;99.90;;;;;;5055193;28;20041;-68
2022/10/20 11:07:31;;;;;;;;;;;18.80;99.90;;;;;;5055749;28;20124;-68
2022/10/20 11:10:13;;;;;;;15.00;4.63;;;18.90;99.90;;;;;;5054682;28;20379;-68
2022/10/20 11:12:51;;;;;;;8.60;3.78;;;18.90;99.90;;;;;;5054987;28;20105;-68
2022/10/20 11:15:34;;;;;;;14.50;5.28;;;18.90;99.90;;;;;;5054793;28;20036;-68
2022/10/20 11:18:12;;;;;;;12.27;4.57;;;18.90;99.90;;;;;;5054726;28;20040;-68
2022/10/20 11:21:05;;;;;;;6.68;3.28;;;18.90;99.90;;;;;;5056027;28;20067;-68
2022/10/20 11:24:13;;;;;;;7.95;3.95;;;19.00;99.90;;;;;;5054809;28;20041;-68
2022/10/20 11:26:42;;;;;;;8.45;4.15;;;19.10;99.90;;;;;;5055583;28;20040;-68
2022/10/20 11:29:31;;;;;;;8.82;3.05;;;19.20;99.90;;;;;;5054816;28;20037;-68
2022/10/20 11:32:16;;;;;;;7.32;2.92;;;;;;;;;;5054933;28;20049;-68
2022/10/20 11:34:59;;;;;;;7.47;2.70;;;19.30;99.90;;;;;;5056505;28;20492;-68
2022/10/20 11:37:35;;;;;;;10.02;3.63;;;19.40;99.90;;;;;;5054970;28;20567;-68
2022/10/20 11:40:10;;;;;;;11.57;3.70;;;19.40;99.90;;;;;;5053131;28;20132;-68
2022/10/20 11:43:03;;;;;;;14.55;3.42;;;19.50;99.90;;;;;;5054493;28;20070;-68
2022/10/20 11:45:44;;;;;;;8.35;2.75;;;19.70;99.90;;;;;;5054303;28;20037;-68
2022/10/20 11:48:21;;;;;;;5.85;2.90;;;19.80;99.90;;;;;;5054022;28;20531;-68
2022/10/20 11:50:59;;;;;;;7.70;2.55;;;20.00;99.90;;;;;;5068057;28;20045;-68
2022/10/20 11:54:14;;;;;;;13.70;2.63;;;20.30;99.90;;;;;;5054149;28;20086;-68
2022/10/20 11:56:48;;;;;;;9.07;2.88;;;20.60;99.90;;;;;;5054252;28;20048;-69
2022/10/20 11:59:20;;;;;;;10.02;3.10;;;21.00;99.90;;;;;;5055998;28;20413;-69
2022/10/20 12:02:17;;;;;;;6.30;2.17;;;21.10;99.90;;;;;;5053995;28;20033;-68
2022/10/20 12:05:21;;;;;;;7.43;2.25;;;21.20;99.90;;;;;;5059323;28;20090;-68
2022/10/20 12:08:08;;;;;;;9.73;2.10;;;21.00;99.90;;;;;;5075970;28;20029;-68
2022/10/20 12:11:01;;;;;;;4.70;1.95;;;21.10;99.90;;;;;;5073987;28;20047;-68
2022/10/20 12:13:51;;;;;;;4.60;1.80;;;20.90;99.90;;;;;;5074102;28;20527;-69
2022/10/20 12:16:54;;;;;;;12.37;2.07;;;20.70;99.90;;;;;;5074990;28;20546;-68
2022/10/20 12:19:30;;;;;;;11.25;1.98;;;20.70;99.90;;;;;;5075635;28;20275;-69
2022/10/20 12:21:59;;;;;;;6.68;2.55;;;20.60;99.90;;;;;;5075697;28;20591;-68
2022/10/20 12:24:34;;;;;;;9.27;1.90;;;20.70;99.90;;;;;;5073556;28;20492;-68
2022/10/20 12:27:06;;;;;;;5.45;2.28;;;20.80;99.90;;;;;;5071512;28;20036;-68
2022/10/20 12:29:31;;;;;;;6.70;1.95;;;20.70;99.90;;;;;;5075372;28;20392;-69
2022/10/20 12:32:28;;;;;;;8.32;2.05;;;20.70;99.90;;;;;;5075458;28;20048;-69
2022/10/20 12:34:59;;;;;;;10.52;1.85;;;20.60;99.90;;;;;;5075396;28;20392;-68
2022/10/20 12:37:36;;;;;;;6.65;2.08;;;20.50;99.90;;;;;;5075359;28;20504;-69
2022/10/20 12:40:07;;;;;;;10.25;2.15;;;20.50;99.90;;;;;;5075239;28;20072;-68
2022/10/20 12:42:39;;;;;;;5.75;2.13;;;20.50;99.90;;;;;;5075172;28;20037;-69
2022/10/20 12:45:19;;;;;;;10.02;2.85;;;20.60;99.90;;;;;;5073786;28;20036;-69
2022/10/20 12:47:47;;;;;;;;;;;20.50;99.90;;;;;;5073950;28;20086;-69
2022/10/20 12:50:32;;;;;;;6.82;2.78;;;20.60;99.90;;;;;;5074455;28;19962;-69
2022/10/20 12:53:11;;;;;;;6.63;1.90;;;21.00;99.90;;;;;;5072900;28;20119;-69
2022/10/20 12:55:38;;;;;;;9.80;1.83;;;21.10;99.90;;;;;;5073073;28;20048;-68
2022/10/20 12:58:16;;;;;;;3.70;1.70;;;21.20;99.90;;;;;;5072120;28;20040;-68
2022/10/20 13:00:45;;;;;;;4.18;2.00;;;21.00;99.90;;;;;;5073269;28;20055;-69
2022/10/20 13:03:37;;;;;;;6.50;2.15;;;20.90;99.90;;;;;;5074148;28;20032;-68